sensor_id;sensor_type;location;lat;lon;timestamp;P1;durP1;ratioP1;P2;durP2;ratioP2
12896;SDS011;6516;35.028;32.372;2023-07-29T00:01:01;14.88;;;10.38;;
12896;SDS011;6516;35.028;32.372;2023-07-29T00:03:30;16.67;;;11.15;;
12896;SDS011;6516;35.028;32.372;2023-07-29T00:05:58;15.35;;;9.77;;
12896;SDS011;6516;35.028;32.372;2023-07-29T00:08:26;15.45;;;9.40;;
12896;SDS011;6516;35.028;32.372;2023-07-29T00:10:54;14.07;;;9.73;;
12896;SDS011;6516;35.028;32.372;2023-07-29T00:13:22;15.27;;;10.00;;
12896;SDS011;6516;35.028;32.372;2023-07-29T00:15:53;16.73;;;9.45;;
12896;SDS011;6516;35.028;32.372;2023-07-29T00:18:21;14.70;;;9.77;;
12896;SDS011;6516;35.028;32.372;2023-07-29T00:20:50;13.38;;;9.27;;
12896;SDS011;6516;35.028;32.372;2023-07-29T00:23:18;15.30;;;8.90;;
12896;SDS011;6516;35.028;32.372;2023-07-29T00:25:46;14.25;;;8.93;;
12896;SDS011;6516;35.028;32.372;2023-07-29T00:28:14;15.88;;;9.07;;
12896;SDS011;6516;35.028;32.372;2023-07-29T00:30:43;13.32;;;8.15;;
12896;SDS011;6516;35.028;32.372;2023-07-29T00:33:12;14.68;;;9.05;;
12896;SDS011;6516;35.028;32.372;2023-07-29T00:35:40;14.87;;;8.63;;
12896;SDS011;6516;35.028;32.372;2023-07-29T00:38:08;14.65;;;8.52;;
12896;SDS011;6516;35.028;32.372;2023-07-29T00:40:36;14.63;;;8.43;;
12896;SDS011;6516;35.028;32.372;2023-07-29T00:43:04;12.20;;;7.93;;
12896;SDS011;6516;35.028;32.372;2023-07-29T00:45:32;14.60;;;8.10;;
12896;SDS011;6516;35.028;32.372;2023-07-29T00:48:01;12.07;;;7.90;;
12896;SDS011;6516;35.028;32.372;2023-07-29T00:50:32;12.23;;;7.30;;
12896;SDS011;6516;35.028;32.372;2023-07-29T00:53:00;11.52;;;7.70;;
12896;SDS011;6516;35.028;32.372;2023-07-29T00:55:28;13.85;;;7.93;;
12896;SDS011;6516;35.028;32.372;2023-07-29T00:57:56;11.90;;;7.15;;
12896;SDS011;6516;35.028;32.372;2023-07-29T01:00:24;12.17;;;7.07;;
12896;SDS011;6516;35.028;32.372;2023-07-29T01:02:52;12.82;;;7.25;;
12896;SDS011;6516;35.028;32.372;2023-07-29T01:05:21;14.25;;;7.40;;
12896;SDS011;6516;35.028;32.372;2023-07-29T01:07:51;11.70;;;6.88;;
12896;SDS011;6516;35.028;32.372;2023-07-29T01:10:30;15.18;;;6.90;;
12896;SDS011;6516;35.028;32.372;2023-07-29T01:13:15;12.53;;;7.00;;
12896;SDS011;6516;35.028;32.372;2023-07-29T01:15:53;11.63;;;6.53;;
12896;SDS011;6516;35.028;32.372;2023-07-29T01:18:23;14.13;;;7.30;;
12896;SDS011;6516;35.028;32.372;2023-07-29T01:20:58;12.23;;;7.35;;
12896;SDS011;6516;35.028;32.372;2023-07-29T01:23:30;11.63;;;6.95;;
12896;SDS011;6516;35.028;32.372;2023-07-29T01:25:59;13.07;;;7.43;;
12896;SDS011;6516;35.028;32.372;2023-07-29T01:28:27;13.90;;;6.80;;
12896;SDS011;6516;35.028;32.372;2023-07-29T01:30:57;11.35;;;6.55;;
12896;SDS011;6516;35.028;32.372;2023-07-29T01:33:30;12.05;;;6.90;;
12896;SDS011;6516;35.028;32.372;2023-07-29T01:36:06;12.98;;;7.30;;
12896;SDS011;6516;35.028;32.372;2023-07-29T01:38:41;14.00;;;7.27;;
12896;SDS011;6516;35.028;32.372;2023-07-29T01:41:11;15.48;;;7.13;;
12896;SDS011;6516;35.028;32.372;2023-07-29T01:43:40;12.43;;;7.22;;
12896;SDS011;6516;35.028;32.372;2023-07-29T01:46:09;16.15;;;7.22;;
12896;SDS011;6516;35.028;32.372;2023-07-29T01:48:38;13.50;;;7.35;;
12896;SDS011;6516;35.028;32.372;2023-07-29T01:51:06;12.40;;;6.83;;
12896;SDS011;6516;35.028;32.372;2023-07-29T01:53:34;11.32;;;7.35;;
12896;SDS011;6516;35.028;32.372;2023-07-29T01:56:04;11.23;;;7.30;;
12896;SDS011;6516;35.028;32.372;2023-07-29T01:58:32;13.55;;;6.82;;
12896;SDS011;6516;35.028;32.372;2023-07-29T02:01:00;12.18;;;6.80;;
12896;SDS011;6516;35.028;32.372;2023-07-29T02:03:28;12.50;;;6.83;;
12896;SDS011;6516;35.028;32.372;2023-07-29T02:05:56;14.68;;;6.93;;
12896;SDS011;6516;35.028;32.372;2023-07-29T02:08:24;13.25;;;7.35;;
12896;SDS011;6516;35.028;32.372;2023-07-29T02:10:52;11.77;;;6.65;;
12896;SDS011;6516;35.028;32.372;2023-07-29T02:13:22;13.05;;;7.07;;
12896;SDS011;6516;35.028;32.372;2023-07-29T02:15:50;12.33;;;6.77;;
12896;SDS011;6516;35.028;32.372;2023-07-29T02:18:18;13.43;;;6.68;;
12896;SDS011;6516;35.028;32.372;2023-07-29T02:20:45;12.48;;;6.82;;
12896;SDS011;6516;35.028;32.372;2023-07-29T02:23:14;11.85;;;6.60;;
12896;SDS011;6516;35.028;32.372;2023-07-29T02:25:43;13.82;;;6.75;;
12896;SDS011;6516;35.028;32.372;2023-07-29T02:28:11;12.27;;;7.43;;
12896;SDS011;6516;35.028;32.372;2023-07-29T02:30:40;12.85;;;7.00;;
12896;SDS011;6516;35.028;32.372;2023-07-29T02:33:10;11.00;;;7.10;;
12896;SDS011;6516;35.028;32.372;2023-07-29T02:35:38;12.65;;;6.50;;
12896;SDS011;6516;35.028;32.372;2023-07-29T02:38:05;13.73;;;6.97;;
12896;SDS011;6516;35.028;32.372;2023-07-29T02:40:34;11.40;;;7.03;;
12896;SDS011;6516;35.028;32.372;2023-07-29T02:43:01;15.38;;;6.90;;
12896;SDS011;6516;35.028;32.372;2023-07-29T02:45:30;12.60;;;6.78;;
12896;SDS011;6516;35.028;32.372;2023-07-29T02:47:59;14.30;;;6.70;;
12896;SDS011;6516;35.028;32.372;2023-07-29T02:50:27;12.68;;;6.80;;
12896;SDS011;6516;35.028;32.372;2023-07-29T02:52:55;12.03;;;6.30;;
12896;SDS011;6516;35.028;32.372;2023-07-29T02:55:23;10.75;;;6.38;;
12896;SDS011;6516;35.028;32.372;2023-07-29T02:57:51;14.63;;;6.50;;
12896;SDS011;6516;35.028;32.372;2023-07-29T03:00:19;13.07;;;6.63;;
12896;SDS011;6516;35.028;32.372;2023-07-29T03:02:47;12.35;;;6.53;;
12896;SDS011;6516;35.028;32.372;2023-07-29T03:05:17;14.43;;;7.33;;
12896;SDS011;6516;35.028;32.372;2023-07-29T03:07:44;15.70;;;8.15;;
12896;SDS011;6516;35.028;32.372;2023-07-29T03:10:12;13.88;;;8.82;;
12896;SDS011;6516;35.028;32.372;2023-07-29T03:12:40;17.27;;;9.25;;
12896;SDS011;6516;35.028;32.372;2023-07-29T03:15:09;20.00;;;10.73;;
12896;SDS011;6516;35.028;32.372;2023-07-29T03:17:38;15.30;;;9.93;;
12896;SDS011;6516;35.028;32.372;2023-07-29T03:20:06;16.60;;;10.93;;
12896;SDS011;6516;35.028;32.372;2023-07-29T03:22:37;18.15;;;11.25;;
12896;SDS011;6516;35.028;32.372;2023-07-29T03:25:05;16.95;;;10.90;;
12896;SDS011;6516;35.028;32.372;2023-07-29T03:27:33;20.70;;;11.55;;
12896;SDS011;6516;35.028;32.372;2023-07-29T03:30:02;21.23;;;11.43;;
12896;SDS011;6516;35.028;32.372;2023-07-29T03:32:31;18.90;;;11.07;;
12896;SDS011;6516;35.028;32.372;2023-07-29T03:34:59;14.45;;;10.98;;
12896;SDS011;6516;35.028;32.372;2023-07-29T03:37:27;20.88;;;11.77;;
12896;SDS011;6516;35.028;32.372;2023-07-29T03:39:56;17.30;;;11.38;;
12896;SDS011;6516;35.028;32.372;2023-07-29T03:42:24;20.03;;;12.20;;
12896;SDS011;6516;35.028;32.372;2023-07-29T03:44:52;20.58;;;12.30;;
12896;SDS011;6516;35.028;32.372;2023-07-29T03:47:20;15.70;;;11.60;;
12896;SDS011;6516;35.028;32.372;2023-07-29T03:49:48;17.92;;;12.18;;
12896;SDS011;6516;35.028;32.372;2023-07-29T03:52:16;20.50;;;11.95;;
12896;SDS011;6516;35.028;32.372;2023-07-29T03:54:44;17.80;;;11.57;;
12896;SDS011;6516;35.028;32.372;2023-07-29T03:57:13;18.88;;;11.77;;
12896;SDS011;6516;35.028;32.372;2023-07-29T03:59:42;17.80;;;12.13;;
12896;SDS011;6516;35.028;32.372;2023-07-29T04:02:10;17.85;;;10.55;;
12896;SDS011;6516;35.028;32.372;2023-07-29T04:04:37;15.07;;;10.80;;
12896;SDS011;6516;35.028;32.372;2023-07-29T04:07:07;15.07;;;10.30;;
12896;SDS011;6516;35.028;32.372;2023-07-29T04:09:35;14.43;;;10.73;;
12896;SDS011;6516;35.028;32.372;2023-07-29T04:12:03;15.73;;;10.75;;
12896;SDS011;6516;35.028;32.372;2023-07-29T04:14:33;20.90;;;11.10;;
12896;SDS011;6516;35.028;32.372;2023-07-29T04:17:00;16.23;;;11.13;;
12896;SDS011;6516;35.028;32.372;2023-07-29T04:19:28;16.27;;;11.00;;
12896;SDS011;6516;35.028;32.372;2023-07-29T04:21:56;19.10;;;9.95;;
12896;SDS011;6516;35.028;32.372;2023-07-29T04:24:24;18.80;;;10.00;;
12896;SDS011;6516;35.028;32.372;2023-07-29T04:26:52;15.27;;;9.80;;
12896;SDS011;6516;35.028;32.372;2023-07-29T04:29:20;14.25;;;9.45;;
12896;SDS011;6516;35.028;32.372;2023-07-29T04:31:50;16.70;;;9.63;;
12896;SDS011;6516;35.028;32.372;2023-07-29T04:34:18;19.20;;;9.95;;
12896;SDS011;6516;35.028;32.372;2023-07-29T04:36:46;17.95;;;10.38;;
12896;SDS011;6516;35.028;32.372;2023-07-29T04:39:15;15.65;;;9.45;;
12896;SDS011;6516;35.028;32.372;2023-07-29T04:41:43;20.52;;;9.43;;
12896;SDS011;6516;35.028;32.372;2023-07-29T04:44:11;16.83;;;8.37;;
12896;SDS011;6516;35.028;32.372;2023-07-29T04:46:39;16.27;;;9.07;;
12896;SDS011;6516;35.028;32.372;2023-07-29T04:49:08;14.85;;;9.32;;
12896;SDS011;6516;35.028;32.372;2023-07-29T04:51:36;18.65;;;9.00;;
12896;SDS011;6516;35.028;32.372;2023-07-29T04:54:04;16.88;;;9.27;;
12896;SDS011;6516;35.028;32.372;2023-07-29T04:56:31;18.80;;;8.13;;
12896;SDS011;6516;35.028;32.372;2023-07-29T04:58:59;13.85;;;7.63;;
12896;SDS011;6516;35.028;32.372;2023-07-29T05:01:27;12.98;;;6.70;;
12896;SDS011;6516;35.028;32.372;2023-07-29T05:03:56;14.70;;;7.50;;
12896;SDS011;6516;35.028;32.372;2023-07-29T05:06:25;16.13;;;7.00;;
12896;SDS011;6516;35.028;32.372;2023-07-29T05:08:53;12.40;;;6.13;;
12896;SDS011;6516;35.028;32.372;2023-07-29T05:11:21;11.48;;;6.57;;
12896;SDS011;6516;35.028;32.372;2023-07-29T05:13:50;12.95;;;6.80;;
12896;SDS011;6516;35.028;32.372;2023-07-29T05:16:18;12.70;;;6.72;;
12896;SDS011;6516;35.028;32.372;2023-07-29T05:18:46;16.20;;;6.78;;
12896;SDS011;6516;35.028;32.372;2023-07-29T05:21:14;11.07;;;6.27;;
12896;SDS011;6516;35.028;32.372;2023-07-29T05:23:43;12.70;;;6.10;;
12896;SDS011;6516;35.028;32.372;2023-07-29T05:26:11;13.45;;;6.80;;
12896;SDS011;6516;35.028;32.372;2023-07-29T05:28:39;10.52;;;6.20;;
12896;SDS011;6516;35.028;32.372;2023-07-29T05:31:07;13.35;;;7.10;;
12896;SDS011;6516;35.028;32.372;2023-07-29T05:33:35;16.90;;;7.03;;
12896;SDS011;6516;35.028;32.372;2023-07-29T05:36:03;13.05;;;6.68;;
12896;SDS011;6516;35.028;32.372;2023-07-29T05:38:33;12.20;;;7.50;;
12896;SDS011;6516;35.028;32.372;2023-07-29T05:41:03;13.05;;;7.00;;
12896;SDS011;6516;35.028;32.372;2023-07-29T05:43:32;14.15;;;6.90;;
12896;SDS011;6516;35.028;32.372;2023-07-29T05:46:02;16.77;;;6.67;;
12896;SDS011;6516;35.028;32.372;2023-07-29T05:48:29;14.30;;;6.60;;
12896;SDS011;6516;35.028;32.372;2023-07-29T05:50:58;11.95;;;6.97;;
12896;SDS011;6516;35.028;32.372;2023-07-29T05:53:32;12.23;;;6.90;;
12896;SDS011;6516;35.028;32.372;2023-07-29T05:56:00;16.38;;;7.25;;
12896;SDS011;6516;35.028;32.372;2023-07-29T05:58:29;15.47;;;7.30;;
12896;SDS011;6516;35.028;32.372;2023-07-29T06:00:57;16.08;;;7.55;;
12896;SDS011;6516;35.028;32.372;2023-07-29T06:03:25;13.18;;;6.97;;
12896;SDS011;6516;35.028;32.372;2023-07-29T06:05:53;11.43;;;6.35;;
12896;SDS011;6516;35.028;32.372;2023-07-29T06:08:21;14.85;;;7.22;;
12896;SDS011;6516;35.028;32.372;2023-07-29T06:10:49;13.33;;;6.43;;
12896;SDS011;6516;35.028;32.372;2023-07-29T06:13:17;16.75;;;7.50;;
12896;SDS011;6516;35.028;32.372;2023-07-29T06:15:47;11.55;;;6.80;;
12896;SDS011;6516;35.028;32.372;2023-07-29T06:18:15;14.40;;;6.95;;
12896;SDS011;6516;35.028;32.372;2023-07-29T06:20:45;13.45;;;6.80;;
12896;SDS011;6516;35.028;32.372;2023-07-29T06:23:13;14.43;;;6.70;;
12896;SDS011;6516;35.028;32.372;2023-07-29T06:25:40;14.43;;;6.85;;
12896;SDS011;6516;35.028;32.372;2023-07-29T06:28:09;15.10;;;7.03;;
12896;SDS011;6516;35.028;32.372;2023-07-29T06:30:37;12.13;;;7.15;;
12896;SDS011;6516;35.028;32.372;2023-07-29T06:33:07;13.90;;;7.32;;
12896;SDS011;6516;35.028;32.372;2023-07-29T06:35:39;14.83;;;7.00;;
12896;SDS011;6516;35.028;32.372;2023-07-29T06:38:08;13.82;;;6.97;;
12896;SDS011;6516;35.028;32.372;2023-07-29T06:40:36;15.13;;;7.10;;
12896;SDS011;6516;35.028;32.372;2023-07-29T06:43:04;14.25;;;7.13;;
12896;SDS011;6516;35.028;32.372;2023-07-29T06:45:32;13.30;;;6.75;;
12896;SDS011;6516;35.028;32.372;2023-07-29T06:47:59;12.80;;;6.97;;
12896;SDS011;6516;35.028;32.372;2023-07-29T06:50:29;16.17;;;7.32;;
12896;SDS011;6516;35.028;32.372;2023-07-29T06:52:57;12.50;;;7.00;;
12896;SDS011;6516;35.028;32.372;2023-07-29T06:55:24;15.05;;;6.95;;
12896;SDS011;6516;35.028;32.372;2023-07-29T06:57:52;16.35;;;7.30;;
12896;SDS011;6516;35.028;32.372;2023-07-29T07:00:21;15.33;;;7.60;;
12896;SDS011;6516;35.028;32.372;2023-07-29T07:02:48;13.20;;;7.00;;
12896;SDS011;6516;35.028;32.372;2023-07-29T07:05:16;15.23;;;6.85;;
12896;SDS011;6516;35.028;32.372;2023-07-29T07:07:46;14.43;;;7.10;;
12896;SDS011;6516;35.028;32.372;2023-07-29T07:10:14;13.52;;;7.25;;
12896;SDS011;6516;35.028;32.372;2023-07-29T07:12:42;13.73;;;6.77;;
12896;SDS011;6516;35.028;32.372;2023-07-29T07:15:10;13.35;;;6.93;;
12896;SDS011;6516;35.028;32.372;2023-07-29T07:17:38;13.10;;;7.10;;
12896;SDS011;6516;35.028;32.372;2023-07-29T07:20:06;11.23;;;6.75;;
12896;SDS011;6516;35.028;32.372;2023-07-29T07:22:35;10.32;;;6.53;;
12896;SDS011;6516;35.028;32.372;2023-07-29T07:25:04;12.90;;;7.13;;
12896;SDS011;6516;35.028;32.372;2023-07-29T07:27:33;13.65;;;7.22;;
12896;SDS011;6516;35.028;32.372;2023-07-29T07:30:01;12.60;;;6.88;;
12896;SDS011;6516;35.028;32.372;2023-07-29T07:32:29;14.68;;;6.65;;
12896;SDS011;6516;35.028;32.372;2023-07-29T07:35:00;13.68;;;7.15;;
12896;SDS011;6516;35.028;32.372;2023-07-29T07:37:28;15.27;;;7.07;;
12896;SDS011;6516;35.028;32.372;2023-07-29T07:39:56;11.73;;;6.70;;
12896;SDS011;6516;35.028;32.372;2023-07-29T07:42:25;15.63;;;7.43;;
12896;SDS011;6516;35.028;32.372;2023-07-29T07:44:53;14.05;;;6.90;;
12896;SDS011;6516;35.028;32.372;2023-07-29T07:47:21;17.45;;;7.15;;
12896;SDS011;6516;35.028;32.372;2023-07-29T07:49:49;13.83;;;7.30;;
12896;SDS011;6516;35.028;32.372;2023-07-29T07:52:17;20.00;;;7.20;;
12896;SDS011;6516;35.028;32.372;2023-07-29T07:54:51;16.33;;;6.93;;
12896;SDS011;6516;35.028;32.372;2023-07-29T07:57:20;13.30;;;6.88;;
12896;SDS011;6516;35.028;32.372;2023-07-29T07:59:50;16.02;;;8.25;;
12896;SDS011;6516;35.028;32.372;2023-07-29T08:02:18;13.23;;;6.87;;
12896;SDS011;6516;35.028;32.372;2023-07-29T08:04:46;15.85;;;7.50;;
12896;SDS011;6516;35.028;32.372;2023-07-29T08:07:14;13.23;;;7.30;;
12896;SDS011;6516;35.028;32.372;2023-07-29T08:09:42;11.85;;;7.13;;
12896;SDS011;6516;35.028;32.372;2023-07-29T08:12:10;13.18;;;6.97;;
12896;SDS011;6516;35.028;32.372;2023-07-29T08:14:38;15.57;;;6.70;;
12896;SDS011;6516;35.028;32.372;2023-07-29T08:17:07;12.68;;;6.75;;
12896;SDS011;6516;35.028;32.372;2023-07-29T08:19:35;13.38;;;6.90;;
12896;SDS011;6516;35.028;32.372;2023-07-29T08:22:03;13.25;;;6.63;;
12896;SDS011;6516;35.028;32.372;2023-07-29T08:24:31;14.90;;;6.65;;
12896;SDS011;6516;35.028;32.372;2023-07-29T08:26:59;16.87;;;6.73;;
12896;SDS011;6516;35.028;32.372;2023-07-29T08:29:27;13.77;;;6.82;;
12896;SDS011;6516;35.028;32.372;2023-07-29T08:31:55;16.80;;;7.15;;
12896;SDS011;6516;35.028;32.372;2023-07-29T08:34:24;19.77;;;7.18;;
12896;SDS011;6516;35.028;32.372;2023-07-29T08:36:52;16.83;;;7.03;;
12896;SDS011;6516;35.028;32.372;2023-07-29T08:39:20;12.00;;;7.03;;
12896;SDS011;6516;35.028;32.372;2023-07-29T08:41:49;13.43;;;6.65;;
12896;SDS011;6516;35.028;32.372;2023-07-29T08:44:25;16.23;;;6.75;;
12896;SDS011;6516;35.028;32.372;2023-07-29T08:46:57;14.38;;;6.65;;
12896;SDS011;6516;35.028;32.372;2023-07-29T08:49:28;15.70;;;7.43;;
12896;SDS011;6516;35.028;32.372;2023-07-29T08:51:58;13.20;;;7.20;;
12896;SDS011;6516;35.028;32.372;2023-07-29T08:54:26;17.75;;;7.38;;
12896;SDS011;6516;35.028;32.372;2023-07-29T08:56:54;12.93;;;7.43;;
12896;SDS011;6516;35.028;32.372;2023-07-29T08:59:23;15.68;;;6.97;;
12896;SDS011;6516;35.028;32.372;2023-07-29T09:01:53;17.58;;;7.30;;
12896;SDS011;6516;35.028;32.372;2023-07-29T09:04:22;16.53;;;6.93;;
12896;SDS011;6516;35.028;32.372;2023-07-29T09:06:52;12.82;;;6.30;;
12896;SDS011;6516;35.028;32.372;2023-07-29T09:09:23;13.93;;;7.22;;
12896;SDS011;6516;35.028;32.372;2023-07-29T09:11:51;15.77;;;6.65;;
12896;SDS011;6516;35.028;32.372;2023-07-29T09:14:20;16.92;;;7.00;;
12896;SDS011;6516;35.028;32.372;2023-07-29T09:16:48;12.87;;;6.43;;
12896;SDS011;6516;35.028;32.372;2023-07-29T09:19:16;15.02;;;6.70;;
12896;SDS011;6516;35.028;32.372;2023-07-29T09:21:45;14.65;;;7.00;;
12896;SDS011;6516;35.028;32.372;2023-07-29T09:24:17;13.90;;;6.90;;
12896;SDS011;6516;35.028;32.372;2023-07-29T09:26:48;11.80;;;7.07;;
12896;SDS011;6516;35.028;32.372;2023-07-29T09:29:21;15.60;;;6.90;;
12896;SDS011;6516;35.028;32.372;2023-07-29T09:31:50;14.30;;;6.93;;
12896;SDS011;6516;35.028;32.372;2023-07-29T09:34:18;14.82;;;7.13;;
12896;SDS011;6516;35.028;32.372;2023-07-29T09:36:46;16.90;;;7.10;;
12896;SDS011;6516;35.028;32.372;2023-07-29T09:39:19;14.20;;;7.35;;
12896;SDS011;6516;35.028;32.372;2023-07-29T09:41:50;14.70;;;6.73;;
12896;SDS011;6516;35.028;32.372;2023-07-29T09:44:18;15.00;;;7.07;;
12896;SDS011;6516;35.028;32.372;2023-07-29T09:46:46;16.30;;;6.82;;
12896;SDS011;6516;35.028;32.372;2023-07-29T09:49:14;17.45;;;6.78;;
12896;SDS011;6516;35.028;32.372;2023-07-29T09:51:41;14.95;;;6.57;;
12896;SDS011;6516;35.028;32.372;2023-07-29T09:54:10;13.80;;;6.57;;
12896;SDS011;6516;35.028;32.372;2023-07-29T09:56:42;12.82;;;6.15;;
12896;SDS011;6516;35.028;32.372;2023-07-29T09:59:11;20.67;;;6.70;;
12896;SDS011;6516;35.028;32.372;2023-07-29T10:01:39;14.55;;;6.13;;
12896;SDS011;6516;35.028;32.372;2023-07-29T10:04:07;13.65;;;5.82;;
12896;SDS011;6516;35.028;32.372;2023-07-29T10:06:36;13.43;;;5.70;;
12896;SDS011;6516;35.028;32.372;2023-07-29T10:09:05;17.48;;;5.88;;
12896;SDS011;6516;35.028;32.372;2023-07-29T10:11:34;19.88;;;5.90;;
12896;SDS011;6516;35.028;32.372;2023-07-29T10:14:05;25.35;;;6.10;;
12896;SDS011;6516;35.028;32.372;2023-07-29T10:16:34;18.80;;;6.60;;
12896;SDS011;6516;35.028;32.372;2023-07-29T10:19:04;12.27;;;5.47;;
12896;SDS011;6516;35.028;32.372;2023-07-29T10:21:35;17.25;;;5.63;;
12896;SDS011;6516;35.028;32.372;2023-07-29T10:24:08;15.18;;;6.35;;
12896;SDS011;6516;35.028;32.372;2023-07-29T10:26:41;13.27;;;5.70;;
12896;SDS011;6516;35.028;32.372;2023-07-29T10:29:14;13.98;;;5.47;;
12896;SDS011;6516;35.028;32.372;2023-07-29T10:31:47;13.67;;;5.57;;
12896;SDS011;6516;35.028;32.372;2023-07-29T10:34:15;14.70;;;5.30;;
12896;SDS011;6516;35.028;32.372;2023-07-29T10:36:44;15.95;;;5.32;;
12896;SDS011;6516;35.028;32.372;2023-07-29T10:39:14;16.42;;;5.30;;
12896;SDS011;6516;35.028;32.372;2023-07-29T10:41:54;13.43;;;5.38;;
12896;SDS011;6516;35.028;32.372;2023-07-29T10:47:19;13.98;;;5.55;;
12896;SDS011;6516;35.028;32.372;2023-07-29T10:49:50;12.07;;;5.10;;
12896;SDS011;6516;35.028;32.372;2023-07-29T10:52:30;13.02;;;5.15;;
12896;SDS011;6516;35.028;32.372;2023-07-29T10:57:52;13.53;;;4.70;;
12896;SDS011;6516;35.028;32.372;2023-07-29T11:00:37;12.68;;;5.28;;
12896;SDS011;6516;35.028;32.372;2023-07-29T11:03:06;12.45;;;5.00;;
12896;SDS011;6516;35.028;32.372;2023-07-29T11:05:44;15.00;;;5.50;;
12896;SDS011;6516;35.028;32.372;2023-07-29T11:08:17;15.55;;;5.65;;
12896;SDS011;6516;35.028;32.372;2023-07-29T11:11:03;14.93;;;4.70;;
12896;SDS011;6516;35.028;32.372;2023-07-29T11:13:33;14.80;;;5.13;;
12896;SDS011;6516;35.028;32.372;2023-07-29T11:16:05;18.73;;;4.80;;
12896;SDS011;6516;35.028;32.372;2023-07-29T11:18:33;15.18;;;5.00;;
12896;SDS011;6516;35.028;32.372;2023-07-29T11:21:02;12.00;;;5.18;;
12896;SDS011;6516;35.028;32.372;2023-07-29T11:23:31;13.10;;;5.40;;
12896;SDS011;6516;35.028;32.372;2023-07-29T11:26:00;13.10;;;5.30;;
12896;SDS011;6516;35.028;32.372;2023-07-29T11:28:29;19.33;;;5.63;;
12896;SDS011;6516;35.028;32.372;2023-07-29T11:30:57;15.65;;;5.60;;
12896;SDS011;6516;35.028;32.372;2023-07-29T11:33:27;16.75;;;6.00;;
12896;SDS011;6516;35.028;32.372;2023-07-29T11:35:55;13.93;;;5.57;;
12896;SDS011;6516;35.028;32.372;2023-07-29T11:38:23;15.80;;;5.53;;
12896;SDS011;6516;35.028;32.372;2023-07-29T11:40:55;15.18;;;5.47;;
12896;SDS011;6516;35.028;32.372;2023-07-29T11:43:25;14.05;;;5.15;;
12896;SDS011;6516;35.028;32.372;2023-07-29T11:45:53;20.63;;;5.60;;
12896;SDS011;6516;35.028;32.372;2023-07-29T11:48:30;16.07;;;5.30;;
12896;SDS011;6516;35.028;32.372;2023-07-29T11:50:59;20.05;;;5.75;;
12896;SDS011;6516;35.028;32.372;2023-07-29T11:53:29;15.68;;;5.40;;
12896;SDS011;6516;35.028;32.372;2023-07-29T11:55:57;17.23;;;5.30;;
12896;SDS011;6516;35.028;32.372;2023-07-29T11:58:25;17.00;;;5.72;;
12896;SDS011;6516;35.028;32.372;2023-07-29T12:00:53;18.97;;;5.20;;
12896;SDS011;6516;35.028;32.372;2023-07-29T12:03:21;12.05;;;6.03;;
12896;SDS011;6516;35.028;32.372;2023-07-29T12:05:51;20.15;;;5.70;;
12896;SDS011;6516;35.028;32.372;2023-07-29T12:08:19;23.20;;;5.97;;
12896;SDS011;6516;35.028;32.372;2023-07-29T12:10:48;17.00;;;5.45;;
12896;SDS011;6516;35.028;32.372;2023-07-29T12:13:16;17.57;;;5.70;;
12896;SDS011;6516;35.028;32.372;2023-07-29T12:15:44;17.05;;;5.50;;
12896;SDS011;6516;35.028;32.372;2023-07-29T12:18:12;17.88;;;5.72;;
12896;SDS011;6516;35.028;32.372;2023-07-29T12:20:40;18.27;;;5.47;;
12896;SDS011;6516;35.028;32.372;2023-07-29T12:23:11;23.58;;;5.68;;
12896;SDS011;6516;35.028;32.372;2023-07-29T12:25:39;13.03;;;4.97;;
12896;SDS011;6516;35.028;32.372;2023-07-29T12:28:07;12.40;;;4.88;;
12896;SDS011;6516;35.028;32.372;2023-07-29T12:30:40;18.08;;;5.60;;
12896;SDS011;6516;35.028;32.372;2023-07-29T12:33:09;14.18;;;4.90;;
12896;SDS011;6516;35.028;32.372;2023-07-29T12:35:36;12.77;;;4.53;;
12896;SDS011;6516;35.028;32.372;2023-07-29T12:38:05;14.67;;;5.30;;
12896;SDS011;6516;35.028;32.372;2023-07-29T12:40:37;12.20;;;4.47;;
12896;SDS011;6516;35.028;32.372;2023-07-29T12:43:07;14.90;;;4.93;;
12896;SDS011;6516;35.028;32.372;2023-07-29T12:45:35;11.65;;;4.45;;
12896;SDS011;6516;35.028;32.372;2023-07-29T12:48:05;10.50;;;4.50;;
12896;SDS011;6516;35.028;32.372;2023-07-29T12:50:33;14.83;;;4.27;;
12896;SDS011;6516;35.028;32.372;2023-07-29T12:53:00;19.52;;;5.03;;
12896;SDS011;6516;35.028;32.372;2023-07-29T12:55:28;11.75;;;4.65;;
12896;SDS011;6516;35.028;32.372;2023-07-29T12:57:58;11.73;;;4.50;;
12896;SDS011;6516;35.028;32.372;2023-07-29T13:00:26;11.35;;;4.15;;
12896;SDS011;6516;35.028;32.372;2023-07-29T13:02:54;11.33;;;4.30;;
12896;SDS011;6516;35.028;32.372;2023-07-29T13:05:22;10.63;;;4.00;;
12896;SDS011;6516;35.028;32.372;2023-07-29T13:07:50;11.20;;;4.53;;
12896;SDS011;6516;35.028;32.372;2023-07-29T13:10:17;12.60;;;4.60;;
12896;SDS011;6516;35.028;32.372;2023-07-29T13:12:45;12.85;;;4.60;;
12896;SDS011;6516;35.028;32.372;2023-07-29T13:15:15;11.40;;;4.00;;
12896;SDS011;6516;35.028;32.372;2023-07-29T13:17:43;10.85;;;4.07;;
12896;SDS011;6516;35.028;32.372;2023-07-29T13:20:12;12.27;;;3.60;;
12896;SDS011;6516;35.028;32.372;2023-07-29T13:22:39;13.52;;;3.80;;
12896;SDS011;6516;35.028;32.372;2023-07-29T13:25:07;11.95;;;3.72;;
12896;SDS011;6516;35.028;32.372;2023-07-29T13:27:35;14.20;;;3.90;;
12896;SDS011;6516;35.028;32.372;2023-07-29T13:30:03;12.20;;;4.10;;
12896;SDS011;6516;35.028;32.372;2023-07-29T13:32:34;12.52;;;3.65;;
12896;SDS011;6516;35.028;32.372;2023-07-29T13:35:02;12.00;;;3.78;;
12896;SDS011;6516;35.028;32.372;2023-07-29T13:37:32;12.40;;;4.25;;
12896;SDS011;6516;35.028;32.372;2023-07-29T13:40:00;15.83;;;4.00;;
12896;SDS011;6516;35.028;32.372;2023-07-29T13:42:28;15.85;;;3.92;;
12896;SDS011;6516;35.028;32.372;2023-07-29T13:44:56;15.40;;;3.92;;
12896;SDS011;6516;35.028;32.372;2023-07-29T13:47:23;9.60;;;3.47;;
12896;SDS011;6516;35.028;32.372;2023-07-29T13:49:53;10.60;;;3.80;;
12896;SDS011;6516;35.028;32.372;2023-07-29T13:52:21;14.17;;;4.20;;
12896;SDS011;6516;35.028;32.372;2023-07-29T13:54:49;12.38;;;4.45;;
12896;SDS011;6516;35.028;32.372;2023-07-29T13:57:17;17.23;;;4.45;;
12896;SDS011;6516;35.028;32.372;2023-07-29T13:59:44;13.20;;;3.90;;
12896;SDS011;6516;35.028;32.372;2023-07-29T14:02:12;11.90;;;4.40;;
12896;SDS011;6516;35.028;32.372;2023-07-29T14:04:41;13.00;;;4.27;;
12896;SDS011;6516;35.028;32.372;2023-07-29T14:07:10;17.48;;;4.40;;
12896;SDS011;6516;35.028;32.372;2023-07-29T14:09:38;14.63;;;4.05;;
12896;SDS011;6516;35.028;32.372;2023-07-29T14:12:06;11.38;;;3.50;;
12896;SDS011;6516;35.028;32.372;2023-07-29T14:14:37;12.90;;;3.80;;
12896;SDS011;6516;35.028;32.372;2023-07-29T14:17:05;13.53;;;3.90;;
12896;SDS011;6516;35.028;32.372;2023-07-29T14:19:33;12.50;;;3.72;;
12896;SDS011;6516;35.028;32.372;2023-07-29T14:22:05;11.75;;;3.50;;
12896;SDS011;6516;35.028;32.372;2023-07-29T14:24:34;11.18;;;3.85;;
12896;SDS011;6516;35.028;32.372;2023-07-29T14:27:02;14.98;;;3.78;;
12896;SDS011;6516;35.028;32.372;2023-07-29T14:29:31;18.67;;;3.40;;
12896;SDS011;6516;35.028;32.372;2023-07-29T14:31:59;13.38;;;3.92;;
12896;SDS011;6516;35.028;32.372;2023-07-29T14:34:26;10.52;;;3.55;;
12896;SDS011;6516;35.028;32.372;2023-07-29T14:36:54;12.75;;;3.50;;
12896;SDS011;6516;35.028;32.372;2023-07-29T14:39:22;13.60;;;3.50;;
12896;SDS011;6516;35.028;32.372;2023-07-29T14:41:52;9.43;;;3.67;;
12896;SDS011;6516;35.028;32.372;2023-07-29T14:44:20;13.55;;;3.72;;
12896;SDS011;6516;35.028;32.372;2023-07-29T14:46:47;16.77;;;4.13;;
12896;SDS011;6516;35.028;32.372;2023-07-29T14:49:16;11.30;;;3.78;;